createdAt,value
2023-01-11T00:01:31.214Z,3.00
2023-01-11T00:03:59.851Z,2.63
2023-01-11T00:06:28.605Z,2.53
2023-01-11T00:08:59.648Z,2.93
2023-01-11T00:11:28.083Z,2.70
2023-01-11T00:13:56.717Z,2.30
2023-01-11T00:16:25.403Z,2.33
2023-01-11T00:18:54.118Z,2.20
2023-01-11T00:21:22.843Z,2.30
2023-01-11T00:23:51.879Z,2.00
2023-01-11T00:26:21.673Z,1.80
2023-01-11T00:28:50.133Z,1.50
2023-01-11T00:31:19.129Z,1.40
2023-01-11T00:33:47.753Z,1.40
2023-01-11T00:36:16.427Z,1.20
2023-01-11T00:38:46.829Z,1.30
2023-01-11T00:41:33.433Z,1.30
2023-01-11T00:44:21.113Z,1.13
2023-01-11T00:47:07.042Z,1.00
2023-01-11T00:49:35.455Z,1.00
2023-01-11T00:52:05.669Z,0.83
2023-01-11T00:54:34.401Z,0.90
2023-01-11T00:57:02.792Z,1.10
2023-01-11T00:59:33.124Z,0.87
2023-01-11T01:02:01.604Z,0.90
2023-01-11T01:04:30.641Z,1.20
2023-01-11T01:06:59.049Z,1.10
2023-01-11T01:09:27.720Z,0.90
2023-01-11T01:11:56.182Z,0.80
2023-01-11T01:14:26.789Z,1.00
2023-01-11T01:16:57.717Z,0.90
2023-01-11T01:19:27.766Z,0.90
2023-01-11T01:21:56.824Z,1.07
2023-01-11T01:24:28.247Z,0.90
2023-01-11T01:26:56.738Z,1.10
2023-01-11T01:29:25.431Z,1.00
2023-01-11T01:31:53.858Z,0.90
2023-01-11T01:34:23.699Z,0.80
2023-01-11T01:36:52.209Z,1.07
2023-01-11T01:39:20.604Z,0.90
2023-01-11T01:41:49.018Z,1.20
2023-01-11T01:44:36.019Z,1.17
2023-01-11T01:47:04.980Z,1.00
2023-01-11T01:49:34.783Z,1.10
2023-01-11T01:52:03.460Z,1.30
2023-01-11T01:54:33.349Z,1.10
2023-01-11T01:57:03.825Z,1.07
2023-01-11T01:59:33.226Z,1.00
2023-01-11T02:02:02.787Z,1.20
2023-01-11T02:04:32.503Z,0.80
2023-01-11T02:07:03.931Z,1.00
2023-01-11T02:09:34.857Z,0.90
2023-01-11T02:12:03.975Z,0.90
2023-01-11T02:14:33.328Z,0.80
2023-01-11T02:17:02.047Z,0.70
2023-01-11T02:19:46.146Z,0.60
2023-01-11T02:22:34.673Z,0.60
2023-01-11T02:25:36.354Z,0.80
2023-01-11T02:28:10.424Z,0.50
2023-01-11T02:30:40.924Z,0.60
2023-01-11T02:33:14.448Z,0.60
2023-01-11T02:35:46.085Z,0.70
2023-01-11T02:38:17.267Z,0.70
2023-01-11T02:40:54.719Z,0.60
2023-01-11T02:43:45.834Z,0.67
2023-01-11T02:46:16.969Z,0.70
2023-01-11T02:48:49.459Z,0.70
2023-01-11T02:51:21.601Z,0.63
2023-01-11T02:53:51.981Z,0.67
2023-01-11T02:56:21.599Z,0.60
2023-01-11T02:58:52.402Z,0.60
2023-01-11T03:01:23.515Z,0.60
2023-01-11T03:03:52.163Z,0.60
2023-01-11T03:06:22.511Z,0.60
2023-01-11T03:09:11.772Z,0.77
2023-01-11T03:12:05.167Z,0.70
2023-01-11T03:14:39.109Z,0.80
2023-01-11T03:17:13.948Z,0.80
2023-01-11T03:19:46.820Z,0.73
2023-01-11T03:22:22.175Z,0.70
2023-01-11T03:24:54.649Z,0.90
2023-01-11T03:27:28.200Z,0.80
2023-01-11T03:30:03.454Z,1.30
2023-01-11T03:32:35.707Z,0.90
2023-01-11T03:35:08.034Z,1.00
2023-01-11T03:37:39.408Z,1.20
2023-01-11T03:40:10.763Z,0.90
2023-01-11T03:43:01.193Z,1.07
2023-01-11T03:45:32.901Z,0.90
2023-01-11T03:48:03.126Z,1.30
2023-01-11T03:50:33.574Z,0.90
2023-01-11T03:53:02.517Z,0.77
2023-01-11T03:55:33.428Z,1.07
2023-01-11T03:58:02.038Z,0.97
2023-01-11T04:00:32.558Z,0.70
2023-01-11T04:03:01.927Z,0.80
2023-01-11T04:05:30.721Z,0.70
2023-01-11T04:07:59.241Z,0.70
2023-01-11T04:10:27.656Z,0.70
2023-01-11T04:12:56.136Z,0.90
2023-01-11T04:15:24.569Z,0.83
2023-01-11T04:17:54.327Z,0.70
2023-01-11T04:20:22.746Z,0.83
2023-01-11T04:22:51.081Z,0.80
2023-01-11T04:25:19.443Z,0.73
2023-01-11T04:27:47.788Z,0.70
2023-01-11T04:30:16.284Z,0.90
2023-01-11T04:32:45.838Z,0.70
2023-01-11T04:35:15.733Z,0.67
2023-01-11T04:37:44.302Z,0.73
2023-01-11T04:40:13.303Z,0.80
2023-01-11T04:42:40.701Z,0.80
2023-01-11T04:45:09.636Z,0.67
2023-01-11T04:47:37.970Z,0.70
2023-01-11T04:50:07.144Z,0.70
2023-01-11T04:52:36.924Z,0.63
2023-01-11T04:55:05.546Z,0.60
2023-01-11T04:57:33.904Z,0.60
2023-01-11T05:00:02.376Z,0.70
2023-01-11T05:02:30.772Z,0.60
2023-01-11T05:04:59.139Z,0.60
2023-01-11T05:07:27.491Z,0.60
2023-01-11T05:09:57.179Z,0.90
2023-01-11T05:12:25.855Z,0.70
2023-01-11T05:14:54.175Z,0.60
2023-01-11T05:17:22.491Z,0.60
2023-01-11T05:19:50.813Z,0.70
2023-01-11T05:22:19.116Z,0.70
2023-01-11T05:24:47.514Z,0.70
2023-01-11T05:27:17.223Z,0.57
2023-01-11T05:29:45.579Z,0.60
2023-01-11T05:32:14.718Z,0.60
2023-01-11T05:34:43.084Z,0.67
2023-01-11T05:37:11.439Z,0.70
2023-01-11T05:39:40.016Z,0.90
2023-01-11T05:42:08.402Z,0.70
2023-01-11T05:44:58.049Z,0.60
2023-01-11T05:47:26.556Z,0.60
2023-01-11T05:49:54.953Z,0.60
2023-01-11T05:52:23.460Z,0.70
2023-01-11T05:54:51.849Z,0.70
2023-01-11T05:57:20.171Z,0.60
2023-01-11T05:59:49.943Z,0.60
2023-01-11T06:02:18.404Z,0.70
2023-01-11T06:04:46.932Z,0.60
2023-01-11T06:07:15.381Z,0.80
2023-01-11T06:09:44.107Z,0.90
2023-01-11T06:12:12.555Z,0.80
2023-01-11T06:14:40.954Z,0.77
2023-01-11T06:17:10.699Z,0.60
2023-01-11T06:19:39.153Z,0.60
2023-01-11T06:22:07.626Z,0.80
2023-01-11T06:24:36.023Z,0.67
2023-01-11T06:27:04.352Z,0.70
2023-01-11T06:29:32.713Z,0.70
2023-01-11T06:32:01.079Z,0.70
2023-01-11T06:34:31.856Z,0.63
2023-01-11T06:37:02.600Z,0.60
2023-01-11T06:39:31.491Z,0.70
2023-01-11T06:41:59.918Z,0.70
2023-01-11T06:44:28.391Z,0.67
2023-01-11T06:46:56.712Z,0.70
2023-01-11T06:49:25.095Z,0.50
2023-01-11T06:51:54.807Z,0.60
2023-01-11T06:54:25.618Z,0.73
2023-01-11T06:56:53.946Z,0.60
2023-01-11T06:59:22.784Z,0.57
2023-01-11T07:01:51.569Z,0.80
2023-01-11T07:04:21.639Z,0.60
2023-01-11T07:06:49.987Z,0.60
2023-01-11T07:09:20.021Z,0.70
2023-01-11T07:11:48.492Z,0.63
2023-01-11T07:14:20.052Z,0.70
2023-01-11T07:16:48.447Z,0.60
2023-01-11T07:19:18.150Z,0.53
2023-01-11T07:21:46.659Z,0.50
2023-01-11T07:24:15.025Z,0.50
2023-01-11T07:26:44.789Z,0.50
2023-01-11T07:29:13.258Z,0.60
2023-01-11T07:31:41.652Z,0.53
2023-01-11T07:34:10.462Z,0.60
2023-01-11T07:36:39.750Z,0.60
2023-01-11T07:39:08.411Z,0.60
2023-01-11T07:41:54.379Z,0.70
2023-01-11T07:44:25.479Z,0.57
2023-01-11T07:46:54.492Z,0.60
2023-01-11T07:49:22.979Z,0.50
2023-01-11T07:51:52.135Z,0.40
2023-01-11T07:54:21.681Z,0.60
2023-01-11T07:56:50.140Z,0.50
2023-01-11T07:59:18.822Z,0.53
2023-01-11T08:01:48.504Z,0.60
2023-01-11T08:04:17.698Z,0.73
2023-01-11T08:06:46.816Z,0.60
2023-01-11T08:09:15.748Z,0.60
2023-01-11T08:12:01.633Z,0.60
2023-01-11T08:14:42.471Z,0.70
2023-01-11T08:17:13.854Z,0.50
2023-01-11T08:19:44.590Z,0.70
2023-01-11T08:22:13.259Z,0.80
2023-01-11T08:24:41.708Z,0.60
2023-01-11T08:27:10.548Z,0.73
2023-01-11T08:29:39.888Z,0.70
2023-01-11T08:32:08.307Z,0.70
2023-01-11T08:34:38.220Z,0.60
2023-01-11T08:37:06.648Z,0.60
2023-01-11T08:39:35.217Z,0.70
2023-01-11T08:42:04.108Z,0.50
2023-01-11T08:44:34.675Z,0.50
2023-01-11T08:47:03.623Z,0.50
2023-01-11T08:49:32.363Z,0.50
2023-01-11T08:52:02.110Z,0.70
2023-01-11T08:57:18.234Z,0.50
2023-01-11T08:59:46.619Z,0.60
2023-01-11T09:02:15.039Z,0.50
2023-01-11T09:04:43.564Z,0.50
2023-01-11T09:07:13.319Z,0.57
2023-01-11T09:09:41.694Z,0.60
2023-01-11T09:12:10.118Z,0.60
2023-01-11T09:14:38.497Z,0.50
2023-01-11T09:17:06.847Z,0.50
2023-01-11T09:19:35.362Z,0.40
2023-01-11T09:22:03.829Z,0.60
2023-01-11T09:24:33.545Z,0.60
2023-01-11T09:27:02.243Z,0.50
2023-01-11T09:29:30.770Z,0.40
2023-01-11T09:31:59.265Z,0.50
2023-01-11T09:34:27.669Z,0.60
2023-01-11T09:36:57.562Z,0.97
2023-01-11T09:39:27.685Z,0.80
2023-01-11T09:42:15.165Z,0.70
2023-01-11T09:44:49.821Z,1.07
2023-01-11T09:47:20.718Z,0.73
2023-01-11T09:49:52.318Z,0.63
2023-01-11T09:52:26.184Z,0.53
2023-01-11T09:54:54.589Z,0.43
2023-01-11T09:57:29.152Z,0.50
2023-01-11T10:00:06.441Z,0.60
2023-01-11T10:02:39.321Z,0.50
2023-01-11T10:05:21.811Z,0.40
2023-01-11T10:18:38.660Z,0.50
2023-01-11T10:19:40.012Z,0.40
2023-01-11T10:22:12.033Z,0.60
2023-01-11T10:24:42.705Z,0.50
2023-01-11T10:27:16.313Z,0.50
2023-01-11T10:30:08.997Z,0.53
2023-01-11T10:32:54.015Z,0.50
2023-01-11T10:35:33.271Z,0.30
2023-01-11T10:38:23.005Z,0.50
2023-01-11T10:41:06.450Z,0.60
2023-01-11T10:43:36.320Z,0.50
2023-01-11T10:46:08.531Z,0.63
2023-01-11T10:48:39.379Z,0.50
2023-01-11T10:51:14.885Z,0.50
2023-01-11T10:53:47.231Z,0.60
2023-01-11T10:56:21.929Z,0.47
2023-01-11T10:59:05.065Z,0.40
2023-01-11T11:01:40.589Z,0.50
2023-01-11T11:04:20.804Z,0.50
2023-01-11T11:06:51.994Z,0.70
2023-01-11T11:09:23.209Z,0.90
2023-01-11T11:11:53.267Z,0.57
2023-01-11T11:14:25.862Z,0.63
2023-01-11T11:16:59.595Z,0.63
2023-01-11T11:19:32.817Z,0.50
2023-01-11T11:22:01.611Z,0.57
2023-01-11T11:24:33.228Z,0.53
2023-01-11T11:27:05.433Z,0.50
2023-01-11T11:29:33.845Z,0.53
2023-01-11T11:32:03.113Z,0.80
2023-01-11T11:34:33.098Z,0.70
2023-01-11T11:37:01.955Z,0.67
2023-01-11T11:39:33.977Z,0.50
2023-01-11T11:42:06.853Z,0.70
2023-01-11T11:44:35.563Z,0.60
2023-01-11T11:47:04.892Z,0.40
2023-01-11T11:49:35.241Z,0.63
2023-01-11T11:52:04.896Z,0.70
2023-01-11T11:54:34.518Z,0.60
2023-01-11T11:57:15.269Z,0.50
2023-01-11T11:59:47.357Z,0.50
2023-01-11T12:02:23.124Z,0.60
2023-01-11T12:04:53.366Z,0.60
2023-01-11T12:07:23.932Z,0.60
2023-01-11T12:09:57.353Z,0.57
2023-01-11T12:12:28.597Z,0.50
2023-01-11T12:15:09.667Z,0.60
2023-01-11T12:17:38.767Z,0.63
2023-01-11T12:20:27.930Z,0.60
2023-01-11T12:23:12.499Z,0.60
2023-01-11T12:25:45.463Z,0.60
2023-01-11T12:28:17.911Z,0.53
2023-01-11T12:30:51.014Z,0.70
2023-01-11T12:33:27.033Z,0.53
2023-01-11T12:36:03.083Z,0.50
2023-01-11T12:38:42.885Z,0.63
2023-01-11T12:41:18.212Z,0.50
2023-01-11T12:43:53.969Z,0.60
2023-01-11T12:46:25.368Z,0.60
2023-01-11T12:49:03.791Z,0.70
2023-01-11T12:51:50.875Z,0.67
2023-01-11T12:54:28.438Z,0.80
2023-01-11T12:57:05.400Z,0.70
2023-01-11T12:59:38.999Z,0.70
2023-01-11T13:02:19.739Z,0.80
2023-01-11T13:04:53.653Z,0.80
2023-01-11T13:07:28.443Z,0.60
2023-01-11T13:10:04.697Z,0.67
2023-01-11T13:12:36.568Z,0.77
2023-01-11T13:15:18.111Z,0.60
2023-01-11T13:17:49.246Z,0.70
2023-01-11T13:20:27.493Z,0.70
2023-01-11T13:22:57.099Z,0.80
2023-01-11T13:25:28.587Z,0.60
2023-01-11T13:28:00.189Z,0.77
2023-01-11T13:30:29.161Z,0.80
2023-01-11T13:33:00.275Z,1.70
2023-01-11T13:35:36.460Z,0.60
2023-01-11T13:38:11.950Z,0.50
2023-01-11T13:40:45.295Z,0.60
2023-01-11T13:43:18.385Z,0.70
2023-01-11T13:45:50.213Z,0.60
2023-01-11T13:48:22.007Z,0.60
2023-01-11T13:50:54.543Z,0.70
2023-01-11T13:53:27.340Z,0.70
2023-01-11T13:55:59.812Z,0.70
2023-01-11T13:58:32.360Z,0.50
2023-01-11T14:01:07.555Z,0.50
2023-01-11T14:03:38.776Z,0.70
2023-01-11T14:06:14.198Z,0.70
2023-01-11T14:08:55.126Z,1.03
2023-01-11T14:11:29.375Z,1.10
2023-01-11T14:14:18.173Z,1.10
2023-01-11T14:17:02.299Z,0.80
2023-01-11T14:19:33.173Z,0.80
2023-01-11T14:22:06.023Z,1.00
2023-01-11T14:24:37.939Z,1.00
2023-01-11T14:27:17.985Z,0.90
2023-01-11T14:29:59.036Z,0.93
2023-01-11T14:32:33.222Z,2.10
2023-01-11T14:35:23.175Z,1.47
2023-01-11T14:38:03.693Z,1.73
2023-01-11T14:40:44.310Z,1.47
2023-01-11T14:43:30.065Z,1.20
2023-01-11T14:46:09.230Z,1.57
2023-01-11T14:48:42.285Z,1.40
2023-01-11T14:51:32.915Z,1.30
2023-01-11T14:54:06.129Z,1.03
2023-01-11T14:56:38.984Z,1.13
2023-01-11T14:59:23.656Z,1.20
2023-01-11T15:02:10.904Z,1.80
2023-01-11T15:04:40.528Z,1.00
2023-01-11T15:07:23.805Z,0.93
2023-01-11T15:09:53.543Z,1.00
2023-01-11T15:12:23.101Z,0.90
2023-01-11T15:14:55.374Z,1.07
2023-01-11T15:17:44.248Z,0.90
2023-01-11T15:20:14.348Z,1.00
2023-01-11T15:22:42.951Z,1.10
2023-01-11T15:25:21.870Z,0.87
2023-01-11T15:27:50.588Z,0.83
2023-01-11T15:30:40.345Z,0.90
2023-01-11T15:33:27.674Z,1.13
2023-01-11T15:36:03.310Z,1.10
2023-01-11T15:38:36.228Z,1.10
2023-01-11T15:41:19.030Z,1.07
2023-01-11T15:43:57.439Z,1.10
2023-01-11T15:46:54.672Z,1.20
2023-01-11T15:49:33.934Z,1.20
2023-01-11T15:52:08.744Z,1.00
2023-01-11T15:54:45.546Z,1.30
2023-01-11T15:57:34.625Z,1.37
2023-01-11T16:00:22.401Z,1.50
2023-01-11T16:03:06.715Z,1.20
2023-01-11T16:05:36.941Z,1.23
2023-01-11T16:08:13.499Z,1.30
2023-01-11T16:10:49.071Z,1.20
2023-01-11T16:13:26.284Z,1.37
2023-01-11T16:16:03.104Z,1.50
2023-01-11T16:18:36.994Z,1.27
2023-01-11T16:21:07.818Z,1.60
2023-01-11T16:23:37.972Z,1.40
2023-01-11T16:26:07.940Z,1.60
2023-01-11T16:28:36.553Z,1.40
2023-01-11T16:31:06.451Z,1.53
2023-01-11T16:33:36.295Z,1.53
2023-01-11T16:36:05.860Z,1.80
2023-01-11T16:38:36.296Z,1.60
2023-01-11T16:41:06.792Z,1.87
2023-01-11T16:43:36.125Z,1.77
2023-01-11T16:46:04.571Z,2.43
2023-01-11T16:48:32.984Z,2.27
2023-01-11T16:51:04.641Z,2.17
2023-01-11T16:53:33.898Z,2.40
2023-01-11T16:56:05.509Z,2.13
2023-01-11T16:58:35.216Z,2.47
2023-01-11T17:01:05.040Z,2.37
2023-01-11T17:03:33.938Z,2.53
2023-01-11T17:06:18.009Z,2.20
2023-01-11T17:08:47.969Z,2.40
2023-01-11T17:11:21.373Z,2.20
2023-01-11T17:14:04.579Z,2.20
2023-01-11T17:16:42.931Z,1.80
2023-01-11T17:19:15.176Z,1.80
2023-01-11T17:21:49.562Z,1.80
2023-01-11T17:24:18.882Z,1.73
2023-01-11T17:26:48.600Z,1.30
2023-01-11T17:29:19.040Z,1.37
2023-01-11T17:31:47.606Z,2.03
2023-01-11T17:34:18.819Z,1.80
2023-01-11T17:36:49.217Z,1.70
2023-01-11T17:39:22.491Z,1.80
2023-01-11T17:42:09.244Z,1.73
2023-01-11T17:44:55.197Z,1.23
2023-01-11T17:47:24.088Z,1.73
2023-01-11T17:49:52.491Z,1.30
2023-01-11T17:52:23.587Z,1.57
2023-01-11T17:55:01.614Z,1.80
2023-01-11T17:57:30.007Z,1.60
2023-01-11T18:00:16.997Z,1.67
2023-01-11T18:02:45.517Z,1.60
2023-01-11T18:05:17.925Z,1.83
2023-01-11T18:07:50.255Z,2.20
2023-01-11T18:10:20.143Z,2.17
2023-01-11T18:12:48.931Z,1.77
2023-01-11T18:15:22.539Z,1.80
2023-01-11T18:17:56.760Z,1.80
2023-01-11T18:20:36.163Z,1.90
2023-01-11T18:23:16.983Z,1.60
2023-01-11T18:25:46.568Z,1.40
2023-01-11T18:28:22.026Z,1.30
2023-01-11T18:30:53.693Z,1.40
2023-01-11T18:33:23.601Z,1.20
2023-01-11T18:35:53.213Z,1.40
2023-01-11T18:38:25.185Z,1.50
2023-01-11T18:40:54.653Z,1.47
2023-01-11T18:43:26.163Z,1.67
2023-01-11T18:45:54.636Z,1.50
2023-01-11T18:48:23.605Z,1.40
2023-01-11T18:50:54.556Z,1.30
2023-01-11T18:53:25.239Z,1.70
2023-01-11T18:55:53.633Z,1.70
2023-01-11T18:58:23.123Z,1.60
2023-01-11T19:00:51.567Z,1.67
2023-01-11T19:03:21.101Z,1.90
2023-01-11T19:05:49.715Z,2.00
2023-01-11T19:08:18.813Z,2.40
2023-01-11T19:10:50.490Z,1.63
2023-01-11T19:13:20.983Z,2.10
2023-01-11T19:15:49.429Z,1.90
2023-01-11T19:18:17.908Z,1.80
2023-01-11T19:20:46.297Z,1.67
2023-01-11T19:23:14.681Z,1.37
2023-01-11T19:25:43.066Z,1.60
2023-01-11T19:28:12.847Z,1.70
2023-01-11T19:30:41.327Z,2.00
2023-01-11T19:33:09.805Z,2.00
2023-01-11T19:35:41.944Z,2.00
2023-01-11T19:38:10.483Z,2.80
2023-01-11T19:40:38.894Z,1.93
2023-01-11T19:43:07.307Z,2.10
2023-01-11T19:45:37.073Z,2.40
2023-01-11T19:48:05.845Z,2.07
2023-01-11T19:50:34.254Z,2.80
2023-01-11T19:53:02.666Z,4.10
2023-01-11T19:55:31.095Z,3.60
2023-01-11T19:57:59.481Z,3.70
2023-01-11T20:00:27.955Z,5.03
2023-01-11T20:02:57.804Z,3.50
2023-01-11T20:05:26.244Z,3.77
2023-01-11T20:07:54.893Z,4.77
2023-01-11T20:10:23.302Z,4.00
2023-01-11T20:12:51.965Z,9.07
2023-01-11T20:15:20.508Z,5.90
2023-01-11T20:17:49.360Z,4.20
2023-01-11T20:20:19.494Z,3.73
2023-01-11T20:22:47.907Z,3.50
2023-01-11T20:25:17.674Z,3.20
2023-01-11T20:27:46.130Z,3.20
2023-01-11T20:30:15.041Z,2.80
2023-01-11T20:32:43.498Z,2.50
2023-01-11T20:35:13.205Z,2.50
2023-01-11T20:37:42.971Z,2.53
2023-01-11T20:40:14.264Z,2.50
2023-01-11T20:42:42.901Z,2.20
2023-01-11T20:45:11.846Z,2.20
2023-01-11T20:47:40.230Z,2.20
2023-01-11T20:50:09.293Z,2.17
2023-01-11T20:52:37.817Z,2.20
2023-01-11T20:55:08.227Z,2.80
2023-01-11T20:57:36.690Z,2.80
2023-01-11T21:00:07.513Z,2.37
2023-01-11T21:02:35.967Z,2.07
2023-01-11T21:05:04.506Z,2.03
2023-01-11T21:07:32.957Z,1.67
2023-01-11T21:10:01.361Z,1.70
2023-01-11T21:12:31.137Z,2.00
2023-01-11T21:14:59.488Z,1.93
2023-01-11T21:17:27.929Z,2.30
2023-01-11T21:19:56.324Z,2.20
2023-01-11T21:22:24.753Z,2.17
2023-01-11T21:24:53.174Z,1.90
2023-01-11T21:27:21.598Z,1.97
2023-01-11T21:29:51.419Z,1.70
2023-01-11T21:32:19.800Z,1.90
2023-01-11T21:34:48.117Z,1.47
2023-01-11T21:37:16.512Z,1.70
2023-01-11T21:39:44.986Z,1.77
2023-01-11T21:42:13.333Z,1.80
2023-01-11T21:44:41.729Z,1.50
2023-01-11T21:47:14.535Z,1.50
2023-01-11T21:49:43.086Z,1.60
2023-01-11T21:52:11.768Z,1.40
2023-01-11T21:54:40.490Z,1.93
2023-01-11T21:57:08.879Z,1.73
2023-01-11T21:59:37.269Z,2.13
2023-01-11T22:02:05.638Z,1.70
2023-01-11T22:04:35.483Z,1.50
2023-01-11T22:07:05.103Z,1.87
2023-01-11T22:09:33.702Z,1.50
2023-01-11T22:12:02.052Z,1.60
2023-01-11T22:14:30.657Z,1.90
2023-01-11T22:16:58.999Z,1.80
2023-01-11T22:19:27.375Z,1.93
2023-01-11T22:21:57.958Z,2.00
2023-01-11T22:24:26.325Z,1.93
2023-01-11T22:26:54.709Z,1.80
2023-01-11T22:29:23.536Z,2.10
2023-01-11T22:31:55.047Z,1.70
2023-01-11T22:34:23.931Z,1.77
2023-01-11T22:36:54.161Z,1.97
2023-01-11T22:39:24.868Z,1.60
2023-01-11T22:41:53.471Z,2.10
2023-01-11T22:44:21.905Z,1.40
2023-01-11T22:46:50.408Z,1.37
2023-01-11T22:49:19.715Z,1.50
2023-01-11T22:51:48.135Z,1.77
2023-01-11T22:54:16.554Z,1.60
2023-01-11T22:56:46.470Z,1.57
2023-01-11T22:59:14.835Z,1.47
2023-01-11T23:01:43.409Z,2.07
2023-01-11T23:04:13.579Z,1.70
2023-01-11T23:06:43.057Z,1.87
2023-01-11T23:09:16.032Z,1.57
2023-01-11T23:12:03.942Z,1.70
2023-01-11T23:14:33.759Z,1.40
2023-01-11T23:17:03.984Z,1.50
2023-01-11T23:19:33.049Z,1.60
2023-01-11T23:22:01.469Z,1.40
2023-01-11T23:24:29.849Z,1.70
2023-01-11T23:26:59.634Z,1.43
2023-01-11T23:29:28.107Z,1.50
2023-01-11T23:31:56.482Z,2.30
2023-01-11T23:34:24.896Z,1.97
2023-01-11T23:36:53.347Z,1.80
2023-01-11T23:39:23.678Z,1.97
2023-01-11T23:42:09.748Z,1.77
2023-01-11T23:44:39.499Z,1.77
2023-01-11T23:47:24.777Z,2.40
2023-01-11T23:49:54.199Z,2.07
2023-01-11T23:52:23.635Z,1.67
2023-01-11T23:54:52.212Z,1.50
2023-01-11T23:57:21.200Z,1.73
2023-01-11T23:59:50.990Z,1.50
